createdAt,value
2018-08-27T00:00:50.369Z,92.30
2018-08-27T00:03:19.179Z,92.40
2018-08-27T00:05:48.718Z,92.20
2018-08-27T00:08:17.503Z,92.30
2018-08-27T00:10:47.913Z,92.10
2018-08-27T00:13:16.734Z,92.10
2018-08-27T00:15:45.508Z,92.00
2018-08-27T00:18:14.883Z,91.90
2018-08-27T00:22:04.327Z,91.90
2018-08-27T00:24:33.722Z,92.00
2018-08-27T00:27:03.344Z,91.80
2018-08-27T00:29:32.515Z,91.90
2018-08-27T00:32:01.415Z,91.60
2018-08-27T00:34:31.183Z,91.70
2018-08-27T00:37:01.718Z,91.70
2018-08-27T00:39:30.512Z,91.80
2018-08-27T00:42:00.902Z,91.90
2018-08-27T00:44:29.705Z,92.00
2018-08-27T00:46:58.490Z,91.80
2018-08-27T00:49:29.399Z,92.00
2018-08-27T00:51:59.355Z,92.00
2018-08-27T00:54:29.490Z,91.90
2018-08-27T00:56:58.499Z,91.90
2018-08-27T00:59:27.573Z,91.90
2018-08-27T01:01:56.387Z,92.30
2018-08-27T01:04:25.192Z,92.20
2018-08-27T01:06:53.950Z,91.80
2018-08-27T01:09:22.746Z,91.70
2018-08-27T01:11:57.131Z,91.70
2018-08-27T01:14:25.956Z,91.70
2018-08-27T01:16:54.732Z,92.00
2018-08-27T01:19:24.533Z,91.70
2018-08-27T01:21:53.323Z,92.00
2018-08-27T01:24:22.092Z,92.10
2018-08-27T01:26:51.661Z,92.00
2018-08-27T01:29:20.510Z,92.00
2018-08-27T01:31:54.627Z,91.90
2018-08-27T01:34:23.503Z,92.20
2018-08-27T01:36:53.085Z,92.30
2018-08-27T01:39:21.851Z,92.00
2018-08-27T01:41:50.942Z,92.20
2018-08-27T01:44:19.704Z,91.90
2018-08-27T01:46:49.344Z,91.80
2018-08-27T01:49:19.117Z,91.80
2018-08-27T01:51:48.674Z,91.70
2018-08-27T01:54:17.431Z,91.60
2018-08-27T01:56:46.569Z,91.50
2018-08-27T01:59:15.378Z,91.50
2018-08-27T02:01:44.211Z,91.40
2018-08-27T02:04:13.582Z,91.30
2018-08-27T02:06:49.134Z,91.60
2018-08-27T02:09:18.779Z,91.60
2018-08-27T02:11:47.570Z,91.70
2018-08-27T02:14:22.979Z,91.50
2018-08-27T02:16:51.726Z,91.70
2018-08-27T02:19:20.513Z,91.90
2018-08-27T02:21:49.904Z,92.50
2018-08-27T02:24:18.702Z,93.30
2018-08-27T02:26:47.564Z,92.60
2018-08-27T02:29:16.370Z,93.10
2018-08-27T02:31:45.135Z,92.50
2018-08-27T02:34:13.929Z,92.60
2018-08-27T02:36:42.682Z,92.70
2018-08-27T02:39:13.785Z,93.30
2018-08-27T02:41:43.349Z,94.50
2018-08-27T02:44:13.110Z,94.20
2018-08-27T02:46:42.936Z,94.30
2018-08-27T02:49:11.723Z,94.30
2018-08-27T02:51:40.483Z,95.10
2018-08-27T02:54:11.325Z,94.60
2018-08-27T02:56:41.687Z,94.70
2018-08-27T02:59:10.886Z,94.60
2018-08-27T03:01:39.678Z,94.70
2018-08-27T03:05:27.798Z,94.70
2018-08-27T03:07:56.575Z,95.00
2018-08-27T03:10:25.394Z,94.90
2018-08-27T03:12:54.192Z,95.20
2018-08-27T03:15:23.680Z,95.50
2018-08-27T03:17:53.337Z,95.50
2018-08-27T03:20:22.147Z,95.60
2018-08-27T03:22:51.522Z,95.60
2018-08-27T03:25:21.649Z,96.00
2018-08-27T03:27:51.115Z,95.80
2018-08-27T03:30:19.962Z,95.90
2018-08-27T03:32:48.806Z,96.60
2018-08-27T03:35:17.594Z,96.70
2018-08-27T03:37:46.423Z,97.10
2018-08-27T03:40:15.179Z,98.40
2018-08-27T03:42:43.927Z,99.90
2018-08-27T03:45:12.690Z,99.90
2018-08-27T03:47:41.562Z,99.20
2018-08-27T03:50:11.426Z,99.90
2018-08-27T03:52:40.231Z,99.90
2018-08-27T03:55:09.103Z,99.90
2018-08-27T03:57:40.243Z,99.90
2018-08-27T04:00:09.793Z,99.90
2018-08-27T04:02:38.645Z,99.90
2018-08-27T04:05:12.789Z,99.90
2018-08-27T04:07:41.579Z,99.90
2018-08-27T04:10:10.349Z,99.90
2018-08-27T04:12:39.142Z,99.90
2018-08-27T04:15:08.003Z,99.90
2018-08-27T04:17:36.816Z,99.40
2018-08-27T04:20:05.956Z,99.20
2018-08-27T04:23:53.875Z,99.60
2018-08-27T04:26:22.715Z,99.30
2018-08-27T04:28:51.598Z,99.10
2018-08-27T04:31:20.756Z,98.90
2018-08-27T04:33:49.609Z,99.40
2018-08-27T04:36:21.758Z,99.20
2018-08-27T04:38:50.601Z,98.90
2018-08-27T04:41:19.526Z,98.90
2018-08-27T04:43:48.368Z,99.40
2018-08-27T04:46:17.470Z,99.30
2018-08-27T04:48:48.051Z,99.70
2018-08-27T04:51:19.498Z,99.40
2018-08-27T04:53:48.329Z,99.90
2018-08-27T04:56:23.177Z,99.90
2018-08-27T04:58:52.703Z,99.90
2018-08-27T05:01:23.123Z,99.90
2018-08-27T05:03:53.957Z,99.90
2018-08-27T05:06:22.798Z,99.90
2018-08-27T05:08:51.622Z,99.90
2018-08-27T05:11:20.469Z,99.90
2018-08-27T05:13:49.807Z,99.90
2018-08-27T05:16:26.483Z,99.90
2018-08-27T05:18:55.259Z,99.90
2018-08-27T05:21:24.077Z,99.90
2018-08-27T05:23:52.977Z,99.90
2018-08-27T05:26:22.862Z,99.90
2018-08-27T05:28:51.681Z,99.90
2018-08-27T05:31:21.730Z,99.90
2018-08-27T05:33:51.583Z,99.90
2018-08-27T05:36:21.459Z,99.90
2018-08-27T05:38:51.043Z,99.90
2018-08-27T05:41:19.990Z,99.90
2018-08-27T05:43:49.591Z,99.90
2018-08-27T05:46:19.289Z,99.90
2018-08-27T05:48:48.235Z,99.90
2018-08-27T05:51:17.095Z,99.90
2018-08-27T05:53:45.976Z,99.90
2018-08-27T05:56:21.730Z,99.90
2018-08-27T06:00:09.656Z,99.90
2018-08-27T06:02:39.258Z,99.90
2018-08-27T06:05:11.514Z,99.90
2018-08-27T06:07:40.423Z,99.90
2018-08-27T06:10:14.619Z,99.90
2018-08-27T06:12:45.523Z,99.90
2018-08-27T06:15:16.292Z,99.90
2018-08-27T06:17:45.190Z,99.90
2018-08-27T06:27:14.387Z,99.90
2018-08-27T06:29:43.298Z,99.90
2018-08-27T06:32:14.253Z,99.90
2018-08-27T06:34:44.239Z,99.90
2018-08-27T06:37:13.584Z,99.90
2018-08-27T06:39:43.303Z,99.90
2018-08-27T06:42:12.133Z,99.90
2018-08-27T06:44:41.753Z,99.90
2018-08-27T06:47:10.650Z,99.90
2018-08-27T06:49:40.717Z,99.90
2018-08-27T06:52:13.164Z,99.90
2018-08-27T06:54:41.992Z,99.90
2018-08-27T06:57:12.040Z,99.90
2018-08-27T06:59:40.938Z,99.90
2018-08-27T07:02:10.814Z,99.90
2018-08-27T07:04:40.551Z,99.90
2018-08-27T07:07:10.146Z,99.90
2018-08-27T07:09:39.011Z,99.90
2018-08-27T07:12:08.473Z,99.90
2018-08-27T07:14:37.414Z,99.90
2018-08-27T07:17:07.392Z,99.90
2018-08-27T07:19:37.393Z,99.90
2018-08-27T07:22:06.480Z,99.90
2018-08-27T07:24:35.990Z,99.90
2018-08-27T07:27:06.655Z,99.90
2018-08-27T07:29:41.584Z,99.90
2018-08-27T07:32:11.147Z,99.90
2018-08-27T07:34:40.827Z,99.90
2018-08-27T07:37:09.700Z,99.90
2018-08-27T07:39:41.612Z,99.90
2018-08-27T07:42:11.977Z,99.90
2018-08-27T07:44:40.894Z,99.90
2018-08-27T07:47:09.959Z,99.90
2018-08-27T07:49:38.816Z,99.90
2018-08-27T07:52:07.821Z,99.90
2018-08-27T07:54:39.133Z,99.90
2018-08-27T07:57:14.382Z,99.90
2018-08-27T07:59:43.487Z,99.90
2018-08-27T08:02:12.445Z,99.90
2018-08-27T08:04:42.067Z,99.90
2018-08-27T08:07:10.999Z,99.90
2018-08-27T08:09:42.696Z,99.90
2018-08-27T08:12:14.368Z,99.90
2018-08-27T08:14:44.608Z,99.90
2018-08-27T08:17:25.199Z,99.90
2018-08-27T08:19:54.068Z,99.90
2018-08-27T08:22:24.320Z,99.90
2018-08-27T08:24:54.107Z,99.90
2018-08-27T08:34:23.658Z,99.90
2018-08-27T08:36:53.522Z,99.90
2018-08-27T08:39:25.916Z,99.90
2018-08-27T08:41:55.713Z,99.90
2018-08-27T08:44:25.545Z,99.90
2018-08-27T08:46:55.497Z,99.90
2018-08-27T08:49:26.333Z,99.90
2018-08-27T08:51:55.238Z,99.90
2018-08-27T08:54:25.470Z,99.90
2018-08-27T08:56:55.348Z,99.90
2018-08-27T08:59:24.280Z,99.90
2018-08-27T09:01:54.748Z,99.90
2018-08-27T09:04:26.221Z,99.90
2018-08-27T09:06:55.282Z,99.90
2018-08-27T09:09:24.282Z,99.90
2018-08-27T09:11:54.134Z,99.90
2018-08-27T09:14:23.119Z,99.90
2018-08-27T09:16:52.153Z,99.90
2018-08-27T09:19:22.287Z,99.90
2018-08-27T09:21:51.384Z,99.90
2018-08-27T09:24:20.611Z,99.90
2018-08-27T09:26:49.452Z,99.90
2018-08-27T09:29:18.584Z,99.90
2018-08-27T09:31:47.431Z,99.90
2018-08-27T09:34:17.286Z,99.90
2018-08-27T09:36:46.149Z,99.90
2018-08-27T09:39:15.581Z,99.90
2018-08-27T09:41:44.470Z,99.90
2018-08-27T09:44:17.216Z,99.90
2018-08-27T09:46:48.226Z,99.90
2018-08-27T09:49:20.147Z,99.90
2018-08-27T09:51:49.843Z,99.90
2018-08-27T09:54:22.531Z,99.90
2018-08-27T09:56:53.978Z,99.90
2018-08-27T09:59:23.530Z,99.90
2018-08-27T10:02:01.839Z,99.90
2018-08-27T10:04:33.390Z,99.90
2018-08-27T10:07:04.251Z,99.90
2018-08-27T10:09:37.761Z,99.90
2018-08-27T10:12:06.676Z,99.90
2018-08-27T10:14:36.422Z,99.90
2018-08-27T10:17:05.746Z,99.90
2018-08-27T10:19:36.335Z,99.90
2018-08-27T10:22:07.482Z,99.90
2018-08-27T10:24:38.197Z,99.90
2018-08-27T10:27:13.650Z,99.90
2018-08-27T10:29:44.294Z,99.90
2018-08-27T10:32:18.654Z,99.90
2018-08-27T10:34:50.666Z,99.90
2018-08-27T10:37:20.347Z,99.90
2018-08-27T10:39:49.132Z,99.90
2018-08-27T10:42:18.654Z,99.90
2018-08-27T10:44:49.183Z,99.90
2018-08-27T10:47:18.318Z,99.90
2018-08-27T10:49:47.206Z,99.90
2018-08-27T10:52:17.690Z,99.90
2018-08-27T10:54:48.598Z,99.90
2018-08-27T10:57:19.753Z,99.90
2018-08-27T10:59:49.690Z,99.90
2018-08-27T11:02:21.082Z,99.90
2018-08-27T11:04:50.234Z,99.90
2018-08-27T11:07:23.639Z,99.90
2018-08-27T11:09:55.635Z,99.90
2018-08-27T11:12:26.289Z,99.90
2018-08-27T11:14:59.334Z,99.90
2018-08-27T11:17:31.832Z,99.90
2018-08-27T11:20:01.903Z,99.90
2018-08-27T11:22:32.696Z,99.90
2018-08-27T11:25:02.064Z,99.90
2018-08-27T11:27:36.223Z,99.90
2018-08-27T11:30:06.122Z,99.90
2018-08-27T11:32:44.616Z,99.90
2018-08-27T11:35:18.274Z,99.90
2018-08-27T11:37:48.606Z,99.90
2018-08-27T11:40:18.391Z,99.90
2018-08-27T11:42:48.782Z,99.90
2018-08-27T11:45:18.194Z,99.90
2018-08-27T11:47:48.134Z,99.90
2018-08-27T11:50:17.236Z,99.90
2018-08-27T11:52:46.318Z,99.90
2018-08-27T11:55:19.139Z,99.90
2018-08-27T11:57:49.210Z,99.90
2018-08-27T12:00:25.041Z,99.90
2018-08-27T12:02:54.080Z,99.90
2018-08-27T12:05:26.562Z,99.90
2018-08-27T12:07:55.962Z,99.90
2018-08-27T12:10:24.973Z,99.90
2018-08-27T12:12:53.962Z,99.90
2018-08-27T12:15:22.805Z,99.90
2018-08-27T12:17:51.812Z,99.90
2018-08-27T12:20:20.672Z,99.90
2018-08-27T12:22:51.755Z,99.90
2018-08-27T12:25:20.985Z,99.90
2018-08-27T12:27:50.377Z,99.90
2018-08-27T12:30:19.247Z,99.90
2018-08-27T12:32:49.106Z,99.90
2018-08-27T12:35:19.352Z,99.90
2018-08-27T12:37:49.232Z,99.90
2018-08-27T12:40:18.284Z,99.90
2018-08-27T12:42:48.459Z,99.90
2018-08-27T12:45:20.721Z,99.90
2018-08-27T12:47:52.756Z,99.90
2018-08-27T12:50:24.522Z,99.90
2018-08-27T12:52:54.592Z,99.90
2018-08-27T12:55:30.012Z,99.90
2018-08-27T12:58:00.170Z,99.90
2018-08-27T13:00:30.075Z,99.90
2018-08-27T13:03:01.795Z,99.90
2018-08-27T13:05:33.250Z,99.90
2018-08-27T13:08:07.269Z,99.90
2018-08-27T13:10:41.450Z,99.90
2018-08-27T13:13:13.255Z,99.90
2018-08-27T13:15:43.419Z,99.90
2018-08-27T13:18:16.309Z,99.90
2018-08-27T13:26:23.278Z,99.90
2018-08-27T13:28:58.194Z,99.90
2018-08-27T13:31:30.341Z,99.90
2018-08-27T13:34:00.283Z,99.90
2018-08-27T13:36:31.431Z,99.90
2018-08-27T13:39:01.315Z,99.90
2018-08-27T13:41:30.177Z,99.90
2018-08-27T13:43:59.374Z,99.90
2018-08-27T13:46:34.898Z,99.90
2018-08-27T13:49:05.912Z,99.90
2018-08-27T13:51:44.123Z,99.90
2018-08-27T13:54:13.493Z,99.90
2018-08-27T13:56:43.042Z,99.90
2018-08-27T13:59:12.558Z,99.90
2018-08-27T14:01:42.092Z,99.90
2018-08-27T14:04:11.303Z,99.90
2018-08-27T14:06:41.367Z,99.90
2018-08-27T14:09:11.403Z,99.90
2018-08-27T14:11:42.136Z,99.90
2018-08-27T14:14:14.163Z,99.90
2018-08-27T14:16:43.366Z,99.90
2018-08-27T14:19:13.675Z,99.90
2018-08-27T14:21:44.290Z,99.90
2018-08-27T14:24:14.655Z,99.90
2018-08-27T14:26:43.734Z,99.90
2018-08-27T14:29:17.651Z,99.90
2018-08-27T14:31:51.006Z,99.90
2018-08-27T14:34:22.193Z,99.90
2018-08-27T14:37:04.314Z,99.90
2018-08-27T14:39:33.821Z,99.90
2018-08-27T14:42:02.781Z,99.90
2018-08-27T14:44:31.709Z,99.90
2018-08-27T14:47:00.726Z,99.90
2018-08-27T14:49:29.649Z,99.90
2018-08-27T14:51:59.709Z,99.90
2018-08-27T14:54:28.632Z,99.90
2018-08-27T14:56:59.465Z,99.90
2018-08-27T14:59:29.566Z,99.90
2018-08-27T15:01:59.246Z,99.90
2018-08-27T15:04:31.181Z,99.90
2018-08-27T15:07:00.094Z,99.90
2018-08-27T15:09:31.342Z,99.90
2018-08-27T15:12:04.833Z,99.90
2018-08-27T15:14:41.719Z,99.90
2018-08-27T15:17:11.647Z,99.90
2018-08-27T15:19:42.641Z,99.90
2018-08-27T15:28:18.062Z,99.90
2018-08-27T15:30:50.265Z,99.90
2018-08-27T15:33:22.173Z,99.90
2018-08-27T15:35:54.683Z,99.90
2018-08-27T15:38:24.711Z,99.90
2018-08-27T15:40:55.652Z,99.90
2018-08-27T15:43:24.882Z,99.90
2018-08-27T15:46:00.319Z,99.90
2018-08-27T15:48:30.027Z,99.90
2018-08-27T15:51:03.141Z,99.90
2018-08-27T15:53:37.221Z,99.90
2018-08-27T15:56:06.338Z,99.90
2018-08-27T15:58:37.603Z,99.90
2018-08-27T16:01:13.655Z,99.90
2018-08-27T16:03:45.673Z,99.90
2018-08-27T16:06:16.193Z,99.90
2018-08-27T16:08:49.075Z,99.90
2018-08-27T16:11:24.393Z,99.90
2018-08-27T16:13:56.193Z,99.90
2018-08-27T16:16:27.057Z,99.90
2018-08-27T16:18:56.825Z,99.90
2018-08-27T16:21:27.305Z,99.90
2018-08-27T16:23:56.888Z,99.90
2018-08-27T16:26:29.563Z,99.90
2018-08-27T16:28:59.219Z,99.90
2018-08-27T16:38:25.807Z,99.90
2018-08-27T16:40:57.331Z,99.90
2018-08-27T16:43:27.042Z,99.90
2018-08-27T16:45:58.246Z,99.90
2018-08-27T16:48:28.724Z,99.90
2018-08-27T16:51:00.522Z,99.90
2018-08-27T16:53:30.652Z,99.90
2018-08-27T16:55:59.657Z,99.90
2018-08-27T16:58:31.429Z,99.90
2018-08-27T17:01:03.224Z,99.90
2018-08-27T17:03:32.430Z,99.90
2018-08-27T17:06:02.982Z,99.90
2018-08-27T17:08:33.658Z,99.90
2018-08-27T17:11:03.365Z,99.90
2018-08-27T17:13:32.265Z,99.90
2018-08-27T17:16:01.168Z,99.90
2018-08-27T17:18:31.627Z,99.90
2018-08-27T17:21:01.169Z,99.90
2018-08-27T17:23:30.602Z,99.90
2018-08-27T17:26:03.452Z,99.90
2018-08-27T17:28:50.657Z,99.90
2018-08-27T17:33:57.575Z,99.90
2018-08-27T17:36:29.890Z,99.90
2018-08-27T17:38:59.726Z,99.90
2018-08-27T17:41:30.230Z,99.90
2018-08-27T17:44:02.101Z,99.90
2018-08-27T17:46:32.195Z,99.90
2018-08-27T17:49:02.531Z,99.90
2018-08-27T17:51:31.703Z,99.90
2018-08-27T17:54:08.134Z,99.90
2018-08-27T17:56:41.125Z,99.90
2018-08-27T17:59:12.115Z,99.90
2018-08-27T18:01:45.295Z,99.90
2018-08-27T18:04:14.989Z,99.90
2018-08-27T18:06:44.735Z,99.90
2018-08-27T18:09:14.526Z,99.90
2018-08-27T18:14:20.202Z,99.90
2018-08-27T18:16:49.147Z,99.90
2018-08-27T18:19:18.403Z,99.90
2018-08-27T18:21:48.102Z,99.90
2018-08-27T18:24:19.685Z,99.90
2018-08-27T18:26:51.277Z,99.90
2018-08-27T18:29:25.940Z,99.90
2018-08-27T18:31:57.226Z,99.90
2018-08-27T18:34:27.588Z,99.90
2018-08-27T18:36:56.449Z,99.90
2018-08-27T18:39:26.760Z,99.90
2018-08-27T18:41:55.704Z,99.90
2018-08-27T18:44:25.984Z,99.90
2018-08-27T18:46:55.222Z,99.90
2018-08-27T18:49:29.182Z,99.90
2018-08-27T18:51:59.722Z,99.90
2018-08-27T18:54:29.603Z,99.90
2018-08-27T18:56:59.402Z,99.90
2018-08-27T18:59:31.612Z,99.90
2018-08-27T19:02:01.465Z,99.90
2018-08-27T19:04:36.707Z,99.90
2018-08-27T19:07:09.976Z,99.90
2018-08-27T19:09:40.494Z,99.90
2018-08-27T19:12:13.649Z,99.90
2018-08-27T19:14:43.626Z,99.90
2018-08-27T19:17:15.838Z,99.90
2018-08-27T19:19:49.295Z,99.90
2018-08-27T19:22:21.130Z,99.90
2018-08-27T19:24:51.317Z,99.90
2018-08-27T19:27:20.642Z,99.90
2018-08-27T19:29:51.339Z,99.90
2018-08-27T19:32:20.226Z,99.90
2018-08-27T19:34:50.638Z,99.90
2018-08-27T19:37:21.500Z,99.90
2018-08-27T19:39:53.834Z,99.90
2018-08-27T19:42:26.185Z,99.90
2018-08-27T19:45:03.380Z,99.90
2018-08-27T19:47:36.285Z,99.90
2018-08-27T19:50:07.598Z,99.90
2018-08-27T19:52:43.070Z,99.90
2018-08-27T19:55:13.977Z,99.90
2018-08-27T19:57:45.785Z,99.90
2018-08-27T20:00:17.397Z,99.90
2018-08-27T20:02:47.601Z,99.90
2018-08-27T20:05:17.191Z,99.90
2018-08-27T20:07:47.453Z,99.90
2018-08-27T20:10:17.407Z,99.90
2018-08-27T20:12:49.707Z,99.90
2018-08-27T20:15:24.553Z,99.90
2018-08-27T20:19:16.286Z,99.90
2018-08-27T20:21:46.937Z,99.90
2018-08-27T20:24:19.261Z,99.90
2018-08-27T20:26:50.157Z,99.90
2018-08-27T20:29:25.120Z,99.90
2018-08-27T20:31:59.576Z,99.90
2018-08-27T20:34:29.796Z,99.90
2018-08-27T20:36:58.673Z,99.90
2018-08-27T20:39:31.806Z,99.90
2018-08-27T20:42:02.393Z,99.90
2018-08-27T20:44:35.448Z,99.90
2018-08-27T20:47:08.874Z,99.90
2018-08-27T20:49:38.175Z,99.90
2018-08-27T20:52:09.880Z,99.90
2018-08-27T20:54:48.157Z,99.90
2018-08-27T20:57:19.391Z,99.90
2018-08-27T20:59:48.871Z,99.90
2018-08-27T21:02:18.142Z,99.90
2018-08-27T21:04:49.831Z,99.90
2018-08-27T21:07:20.383Z,99.90
2018-08-27T21:09:54.457Z,99.90
2018-08-27T21:12:28.737Z,99.90
2018-08-27T21:15:08.744Z,99.90
2018-08-27T21:17:41.207Z,99.90
2018-08-27T21:20:18.153Z,99.90
2018-08-27T21:22:49.376Z,99.90
2018-08-27T21:25:25.666Z,99.90
2018-08-27T21:27:55.565Z,99.90
2018-08-27T21:30:39.267Z,99.90
2018-08-27T21:33:09.170Z,99.90
2018-08-27T21:35:48.942Z,99.90
2018-08-27T21:38:23.517Z,99.90
2018-08-27T21:40:56.702Z,99.90
2018-08-27T21:43:27.271Z,99.90
2018-08-27T21:45:56.515Z,99.90
2018-08-27T21:48:29.271Z,99.90
2018-08-27T21:51:05.121Z,99.90
2018-08-27T21:53:35.467Z,99.90
2018-08-27T21:56:04.834Z,99.90
2018-08-27T21:58:36.628Z,99.90
2018-08-27T22:01:06.425Z,99.90
2018-08-27T22:11:17.725Z,99.90
2018-08-27T22:13:48.242Z,99.90
2018-08-27T22:16:17.979Z,99.90
2018-08-27T22:18:47.496Z,99.90
2018-08-27T22:21:17.893Z,99.90
2018-08-27T22:23:46.869Z,99.90
2018-08-27T22:26:15.789Z,99.90
2018-08-27T22:28:46.746Z,99.90
2018-08-27T22:31:20.738Z,99.90
2018-08-27T22:33:51.303Z,99.90
2018-08-27T22:36:20.912Z,99.90
2018-08-27T22:38:51.393Z,99.90
2018-08-27T22:41:20.579Z,99.90
2018-08-27T22:43:50.403Z,99.90
2018-08-27T22:46:20.021Z,99.90
2018-08-27T22:48:48.990Z,99.90
2018-08-27T22:51:18.110Z,99.90
2018-08-27T22:53:47.341Z,99.90
2018-08-27T22:56:17.226Z,99.90
2018-08-27T22:58:47.507Z,99.90
2018-08-27T23:01:18.319Z,99.90
2018-08-27T23:03:52.566Z,99.90
2018-08-27T23:06:21.500Z,99.90
2018-08-27T23:08:52.272Z,99.90
2018-08-27T23:11:22.159Z,99.90
2018-08-27T23:13:52.977Z,99.90
2018-08-27T23:16:29.002Z,99.90
2018-08-27T23:18:58.839Z,99.90
2018-08-27T23:21:28.630Z,99.90
2018-08-27T23:23:57.624Z,99.90
2018-08-27T23:26:28.538Z,99.90
2018-08-27T23:28:59.382Z,99.90
2018-08-27T23:31:32.137Z,99.90
2018-08-27T23:34:01.997Z,99.90
2018-08-27T23:36:32.597Z,99.90
2018-08-27T23:39:02.653Z,99.90
2018-08-27T23:41:31.688Z,99.90
2018-08-27T23:44:01.260Z,99.90
2018-08-27T23:46:30.185Z,99.90
2018-08-27T23:48:59.079Z,99.90
2018-08-27T23:51:28.156Z,99.90
2018-08-27T23:53:57.118Z,99.90
2018-08-27T23:56:26.094Z,99.90
2018-08-27T23:59:00.012Z,99.90
